createdAt,value
2018-09-13T00:00:48.961Z,3.80
2018-09-13T00:01:55.207Z,3.17
2018-09-13T00:03:01.430Z,3.00
2018-09-13T00:04:07.665Z,3.42
2018-09-13T00:05:14.820Z,2.90
2018-09-13T00:06:22.031Z,3.42
2018-09-13T00:07:27.965Z,2.85
2018-09-13T00:08:34.196Z,3.28
2018-09-13T00:09:40.449Z,3.10
2018-09-13T00:10:46.049Z,3.58
2018-09-13T00:11:52.293Z,3.92
2018-09-13T00:12:58.534Z,3.83
2018-09-13T00:14:04.865Z,3.55
2018-09-13T00:15:11.184Z,5.25
2018-09-13T00:16:17.458Z,3.65
2018-09-13T00:17:23.709Z,3.62
2018-09-13T00:18:29.995Z,2.58
2018-09-13T00:19:36.290Z,3.40
2018-09-13T00:20:42.574Z,3.65
2018-09-13T00:21:48.830Z,4.37
2018-09-13T00:22:55.057Z,3.47
2018-09-13T00:24:01.362Z,3.30
2018-09-13T00:25:07.636Z,3.40
2018-09-13T00:26:13.859Z,4.18
2018-09-13T00:27:20.125Z,3.60
2018-09-13T00:28:26.379Z,3.30
2018-09-13T00:29:32.643Z,4.95
2018-09-13T00:30:38.931Z,3.37
2018-09-13T00:31:45.178Z,5.68
2018-09-13T00:32:51.459Z,4.05
2018-09-13T00:33:57.736Z,4.30
2018-09-13T00:35:03.963Z,3.78
2018-09-13T00:36:10.222Z,5.72
2018-09-13T00:37:16.204Z,4.12
2018-09-13T00:38:22.423Z,3.62
2018-09-13T00:39:28.676Z,4.97
2018-09-13T00:40:34.948Z,4.32
2018-09-13T00:41:41.167Z,3.85
2018-09-13T00:42:47.432Z,4.28
2018-09-13T00:43:53.432Z,4.47
2018-09-13T00:44:59.394Z,4.82
2018-09-13T00:46:05.656Z,9.95
2018-09-13T00:47:11.872Z,4.22
2018-09-13T00:48:18.121Z,4.18
2018-09-13T00:49:24.366Z,4.28
2018-09-13T00:50:30.251Z,4.43
2018-09-13T00:51:36.522Z,6.32
2018-09-13T00:52:42.774Z,2.97
2018-09-13T00:53:49.029Z,4.05
2018-09-13T00:54:55.316Z,3.50
2018-09-13T00:56:01.524Z,4.00
2018-09-13T00:57:07.778Z,5.97
2018-09-13T00:58:14.045Z,4.55
2018-09-13T00:59:20.302Z,4.87
2018-09-13T01:00:26.601Z,5.30
2018-09-13T01:01:31.852Z,4.30
2018-09-13T01:02:37.741Z,3.92
2018-09-13T01:03:43.961Z,5.55
2018-09-13T01:04:50.230Z,4.43
2018-09-13T01:05:56.220Z,6.85
2018-09-13T01:07:02.461Z,5.72
2018-09-13T01:08:08.713Z,4.85
2018-09-13T01:09:14.936Z,6.10
2018-09-13T01:10:21.261Z,4.35
2018-09-13T01:11:27.495Z,4.32
2018-09-13T01:12:33.747Z,6.70
2018-09-13T01:13:40.005Z,4.32
2018-09-13T01:14:45.971Z,5.00
2018-09-13T01:15:52.202Z,4.80
2018-09-13T01:16:58.442Z,5.05
2018-09-13T01:18:04.675Z,6.80
2018-09-13T01:19:10.925Z,5.35
2018-09-13T01:20:17.197Z,4.75
2018-09-13T01:21:23.201Z,5.62
2018-09-13T01:22:29.664Z,5.22
2018-09-13T01:23:35.617Z,4.95
2018-09-13T01:24:41.874Z,5.15
2018-09-13T01:25:47.876Z,5.75
2018-09-13T01:26:54.137Z,4.70
2018-09-13T01:28:00.811Z,4.90
2018-09-13T01:29:06.531Z,5.90
2018-09-13T01:30:12.455Z,4.87
2018-09-13T01:31:18.456Z,8.52
2018-09-13T01:32:24.669Z,5.10
2018-09-13T01:33:30.936Z,4.50
2018-09-13T01:34:37.235Z,5.00
2018-09-13T01:35:43.509Z,5.75
2018-09-13T01:36:49.781Z,4.87
2018-09-13T01:37:55.729Z,5.93
2018-09-13T01:39:01.982Z,5.35
2018-09-13T01:40:07.594Z,6.97
2018-09-13T01:41:13.883Z,5.18
2018-09-13T01:42:20.129Z,5.90
2018-09-13T01:43:26.367Z,9.85
2018-09-13T01:44:31.649Z,5.20
2018-09-13T01:45:37.952Z,4.85
2018-09-13T01:46:44.214Z,5.95
2018-09-13T01:47:50.434Z,4.78
2018-09-13T01:48:56.683Z,4.65
2018-09-13T01:50:02.957Z,4.70
2018-09-13T01:51:09.202Z,5.00
2018-09-13T01:52:15.470Z,4.57
2018-09-13T01:53:21.778Z,5.60
2018-09-13T01:54:28.021Z,4.47
2018-09-13T01:55:34.505Z,5.10
2018-09-13T01:56:40.923Z,5.20
2018-09-13T01:57:47.225Z,5.47
2018-09-13T01:58:53.469Z,4.53
2018-09-13T01:59:59.716Z,5.30
2018-09-13T02:01:05.296Z,4.85
2018-09-13T02:02:11.512Z,6.10
2018-09-13T02:03:17.794Z,5.47
2018-09-13T02:04:24.026Z,5.32
2018-09-13T02:05:30.310Z,4.60
2018-09-13T02:06:36.586Z,5.37
2018-09-13T02:07:42.847Z,4.60
2018-09-13T02:08:48.836Z,5.78
2018-09-13T02:09:55.281Z,6.22
2018-09-13T02:11:01.532Z,5.95
2018-09-13T02:12:07.429Z,4.57
2018-09-13T02:13:13.665Z,5.10
2018-09-13T02:14:19.980Z,6.35
2018-09-13T02:15:26.180Z,4.12
2018-09-13T02:16:32.496Z,4.20
2018-09-13T02:17:38.745Z,5.28
2018-09-13T02:18:44.960Z,3.97
2018-09-13T02:19:50.897Z,5.43
2018-09-13T02:20:57.123Z,4.40
2018-09-13T02:22:03.389Z,4.72
2018-09-13T02:23:09.624Z,7.20
2018-09-13T02:24:15.867Z,4.10
2018-09-13T02:25:21.824Z,4.50
2018-09-13T02:26:28.110Z,5.47
2018-09-13T02:27:34.362Z,6.93
2018-09-13T02:28:40.394Z,4.70
2018-09-13T02:29:46.648Z,5.00
2018-09-13T02:30:52.919Z,5.70
2018-09-13T02:31:59.204Z,4.30
2018-09-13T02:33:05.067Z,7.82
2018-09-13T02:34:11.288Z,9.73
2018-09-13T02:35:17.296Z,10.20
2018-09-13T02:36:23.580Z,6.40
2018-09-13T02:37:29.881Z,7.47
2018-09-13T02:38:36.125Z,4.70
2018-09-13T02:39:42.373Z,4.60
2018-09-13T02:40:48.383Z,6.35
2018-09-13T02:41:58.219Z,5.68
2018-09-13T02:43:04.127Z,5.43
2018-09-13T02:44:09.842Z,4.62
2018-09-13T02:45:16.109Z,5.00
2018-09-13T02:46:22.425Z,6.85
2018-09-13T02:47:28.734Z,7.65
2018-09-13T02:48:34.971Z,6.70
2018-09-13T02:49:41.236Z,5.03
2018-09-13T02:50:47.462Z,7.57
2018-09-13T02:51:53.918Z,4.57
2018-09-13T02:52:59.963Z,6.65
2018-09-13T02:54:05.823Z,4.90
2018-09-13T02:55:12.090Z,5.00
2018-09-13T02:56:19.028Z,4.75
2018-09-13T02:57:25.014Z,4.50
2018-09-13T02:58:31.226Z,4.75
2018-09-13T02:59:37.495Z,4.55
2018-09-13T03:00:44.094Z,5.15
2018-09-13T03:01:51.292Z,4.70
2018-09-13T03:02:58.531Z,4.62
2018-09-13T03:04:05.315Z,5.18
2018-09-13T03:05:12.642Z,7.78
2018-09-13T03:06:19.461Z,5.45
2018-09-13T03:07:27.284Z,6.47
2018-09-13T03:08:35.299Z,6.65
2018-09-13T03:09:43.100Z,9.60
2018-09-13T03:10:50.467Z,7.93
2018-09-13T03:11:58.880Z,7.15
2018-09-13T03:13:07.190Z,7.05
2018-09-13T03:14:14.621Z,5.28
2018-09-13T03:15:22.978Z,6.15
2018-09-13T03:16:31.230Z,4.70
2018-09-13T03:17:38.681Z,4.78
2018-09-13T03:18:46.098Z,6.37
2018-09-13T03:19:53.228Z,4.00
2018-09-13T03:21:00.656Z,4.93
2018-09-13T03:22:08.402Z,3.97
2018-09-13T03:23:16.155Z,7.05
2018-09-13T03:24:23.602Z,6.37
2018-09-13T03:25:31.239Z,4.37
2018-09-13T03:26:38.170Z,4.60
2018-09-13T03:27:45.053Z,5.60
2018-09-13T03:28:52.690Z,4.30
2018-09-13T03:30:00.171Z,4.25
2018-09-13T03:31:08.076Z,5.93
2018-09-13T03:32:15.856Z,6.75
2018-09-13T03:33:24.030Z,3.75
2018-09-13T03:34:30.627Z,4.15
2018-09-13T03:35:38.132Z,4.28
2018-09-13T03:36:45.558Z,5.00
2018-09-13T03:37:54.543Z,5.10
2018-09-13T03:39:02.548Z,5.10
2018-09-13T03:40:09.732Z,4.12
2018-09-13T03:41:18.956Z,5.60
2018-09-13T03:42:26.205Z,8.95
2018-09-13T03:43:33.065Z,3.75
2018-09-13T03:44:40.164Z,7.25
2018-09-13T03:45:47.475Z,8.13
2018-09-13T03:46:54.910Z,5.12
2018-09-13T03:48:02.416Z,6.28
2018-09-13T03:49:09.735Z,5.62
2018-09-13T03:50:16.607Z,5.60
2018-09-13T03:51:23.952Z,5.10
2018-09-13T03:52:31.117Z,3.75
2018-09-13T03:53:38.253Z,4.57
2018-09-13T03:54:45.549Z,3.62
2018-09-13T03:55:52.917Z,6.07
2018-09-13T03:56:59.826Z,4.70
2018-09-13T03:58:08.161Z,4.00
2018-09-13T03:59:15.449Z,8.27
2018-09-13T04:00:23.117Z,6.53
2018-09-13T04:01:30.306Z,4.57
2018-09-13T04:02:37.506Z,5.53
2018-09-13T04:03:44.762Z,4.85
2018-09-13T04:04:53.488Z,3.87
2018-09-13T04:06:01.016Z,3.92
2018-09-13T04:07:08.173Z,3.90
2018-09-13T04:08:15.378Z,3.40
2018-09-13T04:09:23.113Z,6.00
2018-09-13T04:10:29.645Z,3.50
2018-09-13T04:11:35.913Z,10.48
2018-09-13T04:12:42.301Z,3.40
2018-09-13T04:13:48.383Z,5.07
2018-09-13T04:14:54.684Z,3.85
2018-09-13T04:16:01.241Z,3.60
2018-09-13T04:17:08.588Z,2.97
2018-09-13T04:18:14.848Z,3.30
2018-09-13T04:19:20.856Z,3.53
2018-09-13T04:20:27.122Z,3.50
2018-09-13T04:21:33.349Z,5.22
2018-09-13T04:22:39.601Z,4.37
2018-09-13T04:23:46.153Z,4.25
2018-09-13T04:24:52.400Z,3.95
2018-09-13T04:25:58.641Z,3.92
2018-09-13T04:27:04.868Z,4.50
2018-09-13T04:28:11.142Z,6.50
2018-09-13T04:29:17.158Z,3.78
2018-09-13T04:30:23.446Z,4.00
2018-09-13T04:31:29.752Z,4.72
2018-09-13T04:32:35.987Z,3.90
2018-09-13T04:33:42.269Z,4.05
2018-09-13T04:34:48.486Z,4.07
2018-09-13T04:35:54.862Z,3.95
2018-09-13T04:37:01.274Z,4.32
2018-09-13T04:38:07.561Z,3.90
2018-09-13T04:39:13.823Z,4.60
2018-09-13T04:40:20.155Z,4.47
2018-09-13T04:41:26.665Z,4.50
2018-09-13T04:42:32.641Z,4.43
2018-09-13T04:43:38.686Z,4.37
2018-09-13T04:44:44.934Z,4.60
2018-09-13T04:45:50.951Z,4.55
2018-09-13T04:46:57.168Z,3.70
2018-09-13T04:48:03.561Z,5.05
2018-09-13T04:49:09.873Z,4.10
2018-09-13T04:50:16.339Z,4.72
2018-09-13T04:51:22.613Z,4.15
2018-09-13T04:52:28.615Z,4.50
2018-09-13T04:53:34.898Z,7.60
2018-09-13T04:54:41.148Z,4.22
2018-09-13T04:55:47.161Z,4.75
2018-09-13T04:56:53.436Z,4.70
2018-09-13T04:57:59.695Z,4.30
2018-09-13T04:59:05.040Z,4.00
2018-09-13T05:00:11.304Z,6.72
2018-09-13T05:01:17.426Z,4.35
2018-09-13T05:02:23.665Z,5.95
2018-09-13T05:03:29.981Z,4.43
2018-09-13T05:04:36.221Z,6.12
2018-09-13T05:05:42.532Z,5.07
2018-09-13T05:06:48.782Z,5.00
2018-09-13T05:07:55.141Z,4.10
2018-09-13T05:09:01.432Z,7.35
2018-09-13T05:10:07.414Z,4.00
2018-09-13T05:11:13.687Z,5.87
2018-09-13T05:12:19.941Z,4.95
2018-09-13T05:13:26.685Z,7.22
2018-09-13T05:14:33.164Z,5.93
2018-09-13T05:15:39.389Z,6.20
2018-09-13T05:16:45.644Z,5.25
2018-09-13T05:17:52.041Z,5.93
2018-09-13T05:18:58.504Z,6.82
2018-09-13T05:20:04.506Z,6.75
2018-09-13T05:21:10.801Z,6.60
2018-09-13T05:22:17.103Z,6.95
2018-09-13T05:23:23.302Z,6.03
2018-09-13T05:24:29.622Z,6.05
2018-09-13T05:25:35.802Z,7.55
2018-09-13T05:26:42.037Z,6.50
2018-09-13T05:27:48.256Z,5.62
2018-09-13T05:28:54.548Z,7.53
2018-09-13T05:30:00.799Z,5.70
2018-09-13T05:31:06.870Z,6.70
2018-09-13T05:32:13.127Z,6.25
2018-09-13T05:33:19.352Z,7.78
2018-09-13T05:34:25.630Z,6.28
2018-09-13T05:35:31.874Z,7.72
2018-09-13T05:36:38.100Z,7.53
2018-09-13T05:37:44.110Z,6.15
2018-09-13T05:38:50.391Z,6.68
2018-09-13T05:39:56.854Z,5.80
2018-09-13T05:41:03.112Z,6.57
2018-09-13T05:42:09.004Z,6.43
2018-09-13T05:43:14.984Z,7.62
2018-09-13T05:44:21.254Z,5.82
2018-09-13T05:45:28.155Z,6.53
2018-09-13T05:46:34.409Z,6.47
2018-09-13T05:47:40.650Z,8.38
2018-09-13T05:48:46.901Z,6.37
2018-09-13T05:49:53.187Z,9.55
2018-09-13T05:50:59.456Z,7.37
2018-09-13T05:52:05.702Z,7.97
2018-09-13T05:53:11.951Z,6.40
2018-09-13T05:54:18.270Z,7.32
2018-09-13T05:55:24.512Z,8.15
2018-09-13T05:56:30.738Z,7.12
2018-09-13T05:57:36.987Z,8.23
2018-09-13T05:58:43.234Z,8.85
2018-09-13T05:59:49.559Z,7.45
2018-09-13T06:01:00.871Z,6.40
2018-09-13T06:02:07.200Z,7.60
2018-09-13T06:03:13.427Z,8.00
2018-09-13T06:04:19.697Z,7.35
2018-09-13T06:05:25.934Z,7.32
2018-09-13T06:06:32.191Z,6.12
2018-09-13T06:07:38.422Z,7.00
2018-09-13T06:08:44.705Z,9.48
2018-09-13T06:09:50.765Z,6.32
2018-09-13T06:10:57.037Z,7.05
2018-09-13T06:12:03.325Z,6.47
2018-09-13T06:13:09.784Z,6.70
2018-09-13T06:14:16.180Z,12.27
2018-09-13T06:15:22.409Z,8.45
2018-09-13T06:16:28.402Z,7.60
2018-09-13T06:17:34.632Z,8.05
2018-09-13T06:18:40.868Z,7.20
2018-09-13T06:19:47.191Z,7.32
2018-09-13T06:20:53.633Z,6.82
2018-09-13T06:21:59.876Z,9.23
2018-09-13T06:23:06.100Z,8.48
2018-09-13T06:24:12.303Z,8.27
2018-09-13T06:25:18.556Z,7.45
2018-09-13T06:26:24.803Z,8.70
2018-09-13T06:27:31.040Z,9.82
2018-09-13T06:28:37.243Z,8.00
2018-09-13T06:29:43.505Z,9.65
2018-09-13T06:30:49.771Z,8.70
2018-09-13T06:31:56.264Z,7.70
2018-09-13T06:33:02.535Z,7.43
2018-09-13T06:34:08.793Z,9.85
2018-09-13T06:35:15.058Z,8.38
2018-09-13T06:36:21.317Z,7.05
2018-09-13T06:37:27.785Z,7.65
2018-09-13T06:38:34.002Z,8.13
2018-09-13T06:39:40.383Z,7.93
2018-09-13T06:40:46.624Z,7.12
2018-09-13T06:41:52.898Z,7.30
2018-09-13T06:42:59.150Z,6.53
2018-09-13T06:44:05.381Z,7.20
2018-09-13T06:45:11.649Z,7.65
2018-09-13T06:46:17.912Z,9.02
2018-09-13T06:47:24.184Z,8.00
2018-09-13T06:48:30.479Z,7.70
2018-09-13T06:49:36.879Z,7.65
2018-09-13T06:50:43.156Z,6.62
2018-09-13T06:51:49.416Z,7.53
2018-09-13T06:52:55.657Z,8.20
2018-09-13T06:54:01.932Z,8.40
2018-09-13T06:55:07.718Z,10.73
2018-09-13T06:56:14.013Z,7.47
2018-09-13T06:57:20.238Z,7.28
2018-09-13T06:58:26.465Z,8.35
2018-09-13T06:59:32.663Z,6.60
2018-09-13T07:00:38.698Z,6.80
2018-09-13T07:01:44.983Z,6.53
2018-09-13T07:02:51.245Z,7.28
2018-09-13T07:03:57.487Z,6.97
2018-09-13T07:05:03.445Z,7.70
2018-09-13T07:06:09.671Z,6.90
2018-09-13T07:07:15.730Z,7.12
2018-09-13T07:08:22.155Z,6.10
2018-09-13T07:09:28.153Z,6.62
2018-09-13T07:10:33.892Z,5.85
2018-09-13T07:11:40.115Z,7.62
2018-09-13T07:12:46.384Z,5.28
2018-09-13T07:13:52.385Z,5.15
2018-09-13T07:14:58.723Z,5.93
2018-09-13T07:16:04.991Z,5.43
2018-09-13T07:17:11.195Z,5.45
2018-09-13T07:18:17.425Z,6.35
2018-09-13T07:19:23.645Z,6.37
2018-09-13T07:20:29.933Z,4.20
2018-09-13T07:21:36.233Z,4.35
2018-09-13T07:22:42.123Z,6.45
2018-09-13T07:23:48.125Z,4.37
2018-09-13T07:24:54.092Z,3.72
2018-09-13T07:26:00.385Z,3.35
2018-09-13T07:27:05.922Z,3.10
2018-09-13T07:28:12.214Z,2.80
2018-09-13T07:29:18.473Z,3.80
2018-09-13T07:30:24.819Z,5.93
2018-09-13T07:31:31.098Z,3.83
2018-09-13T07:32:37.386Z,3.45
2018-09-13T07:33:43.606Z,4.60
2018-09-13T07:34:49.822Z,4.15
2018-09-13T07:35:56.088Z,4.87
2018-09-13T07:37:02.326Z,5.05
2018-09-13T07:38:08.556Z,4.82
2018-09-13T07:39:14.607Z,3.83
2018-09-13T07:40:20.832Z,4.25
2018-09-13T07:41:27.090Z,5.28
2018-09-13T07:42:33.425Z,5.75
2018-09-13T07:43:39.818Z,3.30
2018-09-13T07:44:45.811Z,4.87
2018-09-13T07:45:52.076Z,3.92
2018-09-13T07:46:58.074Z,5.12
2018-09-13T07:48:04.330Z,5.30
2018-09-13T07:49:10.591Z,3.53
2018-09-13T07:50:17.015Z,4.35
2018-09-13T07:51:23.389Z,3.60
2018-09-13T07:52:29.856Z,3.40
2018-09-13T07:53:36.110Z,7.03
2018-09-13T07:54:42.340Z,4.43
2018-09-13T07:55:48.440Z,2.75
2018-09-13T07:56:54.845Z,2.78
2018-09-13T07:58:00.850Z,3.25
2018-09-13T07:59:07.089Z,4.78
2018-09-13T08:00:13.317Z,5.15
2018-09-13T08:01:19.584Z,3.15
2018-09-13T08:02:25.876Z,3.62
2018-09-13T08:03:32.083Z,3.78
2018-09-13T08:04:38.037Z,4.85
2018-09-13T08:05:44.292Z,3.37
2018-09-13T08:06:50.559Z,3.30
2018-09-13T08:07:56.788Z,3.80
2018-09-13T08:09:02.776Z,3.67
2018-09-13T08:10:08.800Z,3.50
2018-09-13T08:11:15.146Z,3.17
2018-09-13T08:12:21.369Z,3.60
2018-09-13T08:13:27.642Z,4.80
2018-09-13T08:14:33.589Z,4.07
2018-09-13T08:15:39.561Z,4.05
2018-09-13T08:16:45.828Z,3.33
2018-09-13T08:17:52.051Z,5.20
2018-09-13T08:18:58.314Z,5.45
2018-09-13T08:20:04.235Z,5.60
2018-09-13T08:21:10.525Z,3.40
2018-09-13T08:22:17.349Z,6.32
2018-09-13T08:23:23.340Z,3.35
2018-09-13T08:24:29.586Z,3.80
2018-09-13T08:25:35.848Z,5.90
2018-09-13T08:26:42.138Z,3.42
2018-09-13T08:27:48.380Z,5.30
2018-09-13T08:28:54.603Z,9.70
2018-09-13T08:30:00.613Z,2.97
2018-09-13T08:31:06.891Z,2.67
2018-09-13T08:32:13.164Z,4.62
2018-09-13T08:33:19.524Z,5.18
2018-09-13T08:34:25.958Z,3.10
2018-09-13T08:35:32.209Z,3.85
2018-09-13T08:36:38.476Z,2.75
2018-09-13T08:37:44.701Z,3.40
2018-09-13T08:38:50.936Z,3.90
2018-09-13T08:39:57.326Z,4.00
2018-09-13T08:41:03.463Z,3.45
2018-09-13T08:42:09.118Z,3.95
2018-09-13T08:43:15.563Z,3.20
2018-09-13T08:44:21.864Z,3.60
2018-09-13T08:45:28.156Z,5.25
2018-09-13T08:46:34.443Z,3.83
2018-09-13T08:47:40.738Z,3.37
2018-09-13T08:48:47.188Z,7.30
2018-09-13T08:49:53.617Z,4.68
2018-09-13T08:50:59.934Z,3.20
2018-09-13T08:52:06.270Z,4.00
2018-09-13T08:53:12.504Z,7.80
2018-09-13T08:54:18.754Z,4.32
2018-09-13T08:55:25.018Z,3.08
2018-09-13T08:56:31.293Z,3.42
2018-09-13T08:57:38.705Z,6.85
2018-09-13T08:58:44.949Z,5.15
2018-09-13T08:59:51.179Z,4.18
2018-09-13T09:00:57.406Z,3.97
2018-09-13T09:02:03.688Z,4.57
2018-09-13T09:03:10.004Z,4.72
2018-09-13T09:04:16.251Z,3.80
2018-09-13T09:05:22.519Z,4.20
2018-09-13T09:06:28.751Z,6.90
2018-09-13T09:07:34.999Z,4.10
2018-09-13T09:08:41.273Z,4.72
2018-09-13T09:09:47.523Z,6.37
2018-09-13T09:10:53.797Z,6.57
2018-09-13T09:12:00.108Z,4.60
2018-09-13T09:13:06.211Z,5.45
2018-09-13T09:14:12.514Z,8.55
2018-09-13T09:15:18.759Z,3.92
2018-09-13T09:16:25.009Z,3.85
2018-09-13T09:17:31.292Z,7.18
2018-09-13T09:18:37.606Z,10.05
2018-09-13T09:19:44.004Z,5.00
2018-09-13T09:20:50.136Z,5.40
2018-09-13T09:21:56.398Z,5.20
2018-09-13T09:23:02.608Z,6.28
2018-09-13T09:24:08.548Z,9.38
2018-09-13T09:25:15.003Z,5.30
2018-09-13T09:26:21.283Z,5.72
2018-09-13T09:27:27.565Z,7.78
2018-09-13T09:28:33.896Z,5.37
2018-09-13T09:29:40.142Z,6.18
2018-09-13T09:30:46.368Z,7.18
2018-09-13T09:31:52.605Z,5.57
2018-09-13T09:32:58.894Z,5.57
2018-09-13T09:34:05.121Z,5.65
2018-09-13T09:35:11.378Z,6.05
2018-09-13T09:36:17.663Z,5.15
2018-09-13T09:37:23.930Z,8.45
2018-09-13T09:38:30.154Z,7.47
2018-09-13T09:39:36.424Z,5.70
2018-09-13T09:40:42.782Z,5.55
2018-09-13T09:41:49.193Z,8.73
2018-09-13T09:42:55.465Z,5.43
2018-09-13T09:44:01.703Z,4.90
2018-09-13T09:45:07.977Z,5.30
2018-09-13T09:46:14.209Z,7.28
2018-09-13T09:47:20.726Z,6.57
2018-09-13T09:48:26.969Z,5.40
2018-09-13T09:49:33.257Z,4.68
2018-09-13T09:50:39.478Z,5.05
2018-09-13T09:51:45.720Z,6.70
2018-09-13T09:52:52.018Z,5.62
2018-09-13T09:53:58.249Z,8.52
2018-09-13T09:55:04.117Z,5.32
2018-09-13T09:56:10.425Z,4.62
2018-09-13T09:57:16.851Z,5.47
2018-09-13T09:58:23.164Z,5.20
2018-09-13T09:59:29.417Z,5.75
2018-09-13T10:00:35.472Z,6.28
2018-09-13T10:01:41.507Z,6.12
2018-09-13T10:02:52.023Z,8.20
2018-09-13T10:04:05.932Z,7.22
2018-09-13T10:05:12.584Z,7.22
2018-09-13T10:06:19.241Z,6.55
2018-09-13T10:07:25.624Z,7.28
2018-09-13T10:08:31.877Z,6.55
2018-09-13T10:09:38.142Z,7.18
2018-09-13T10:10:47.544Z,6.22
2018-09-13T10:11:53.964Z,8.93
2018-09-13T10:13:00.429Z,6.53
2018-09-13T10:14:06.597Z,6.28
2018-09-13T10:15:13.209Z,5.43
2018-09-13T10:16:24.708Z,6.12
2018-09-13T10:17:36.331Z,5.70
2018-09-13T10:18:42.349Z,5.57
2018-09-13T10:19:49.228Z,5.20
2018-09-13T10:22:44.689Z,7.07
2018-09-13T10:24:11.672Z,5.43
2018-09-13T10:27:11.598Z,5.62
2018-09-13T10:28:48.791Z,6.65
2018-09-13T10:30:29.164Z,7.15
2018-09-13T10:32:06.125Z,6.07
2018-09-13T10:33:47.511Z,5.40
2018-09-13T10:35:24.488Z,7.40
2018-09-13T10:37:01.605Z,5.82
2018-09-13T10:38:42.573Z,5.30
2018-09-13T10:40:19.626Z,5.00
2018-09-13T10:42:01.954Z,4.97
2018-09-13T10:43:43.080Z,5.80
2018-09-13T10:45:26.955Z,5.65
2018-09-13T10:46:33.515Z,5.03
2018-09-13T10:47:42.165Z,4.70
2018-09-13T10:48:46.661Z,4.55
2018-09-13T10:51:32.077Z,5.40
2018-09-13T10:52:38.173Z,4.45
2018-09-13T10:53:43.356Z,4.82
2018-09-13T10:54:50.866Z,4.72
2018-09-13T10:55:56.890Z,4.53
2018-09-13T10:57:02.800Z,4.82
2018-09-13T10:58:08.772Z,7.15
2018-09-13T10:59:16.463Z,5.28
2018-09-13T11:00:23.241Z,5.62
2018-09-13T11:01:30.173Z,5.07
2018-09-13T11:02:36.152Z,6.47
2018-09-13T11:03:43.953Z,5.87
2018-09-13T11:04:49.684Z,5.93
2018-09-13T11:05:55.561Z,7.62
2018-09-13T11:07:01.472Z,4.85
2018-09-13T11:08:07.017Z,5.20
2018-09-13T11:09:12.409Z,6.05
2018-09-13T11:10:20.338Z,7.25
2018-09-13T11:11:26.786Z,7.20
2018-09-13T11:12:33.011Z,5.05
2018-09-13T11:13:38.790Z,5.97
2018-09-13T11:14:44.903Z,6.37
2018-09-13T11:15:50.561Z,4.93
2018-09-13T11:18:08.259Z,4.90
2018-09-13T11:19:15.457Z,5.93
2018-09-13T11:20:21.511Z,7.22
2018-09-13T11:21:31.645Z,6.95
2018-09-13T11:22:37.770Z,4.72
2018-09-13T11:23:43.845Z,5.03
2018-09-13T11:24:49.740Z,5.90
2018-09-13T11:25:55.718Z,5.10
2018-09-13T11:27:02.013Z,7.28
2018-09-13T11:28:08.953Z,5.93
2018-09-13T11:29:15.737Z,6.22
2018-09-13T11:30:24.097Z,5.47
2018-09-13T11:31:31.269Z,5.53
2018-09-13T11:32:40.744Z,5.57
2018-09-13T11:33:47.411Z,5.20
2018-09-13T11:34:53.376Z,6.82
2018-09-13T11:36:00.290Z,6.22
2018-09-13T11:37:07.048Z,5.60
2018-09-13T11:38:13.012Z,5.65
2018-09-13T11:39:19.017Z,5.57
2018-09-13T11:40:25.378Z,4.50
2018-09-13T11:41:32.256Z,4.80
2018-09-13T11:42:38.731Z,4.95
2018-09-13T11:43:44.000Z,6.87
2018-09-13T11:44:58.467Z,4.75
2018-09-13T11:46:05.231Z,10.20
2018-09-13T11:47:11.752Z,6.15
2018-09-13T11:48:18.968Z,10.48
2018-09-13T11:49:27.696Z,5.80
2018-09-13T11:50:34.281Z,5.30
2018-09-13T11:51:45.384Z,5.03
2018-09-13T11:52:51.669Z,4.60
2018-09-13T11:53:57.999Z,4.25
2018-09-13T11:55:04.104Z,5.28
2018-09-13T11:56:10.157Z,10.80
2018-09-13T11:57:19.808Z,8.30
2018-09-13T11:58:25.781Z,5.05
2018-09-13T11:59:32.081Z,4.68
2018-09-13T12:00:39.465Z,6.45
2018-09-13T12:01:45.463Z,5.43
2018-09-13T12:02:51.728Z,5.18
2018-09-13T12:03:58.080Z,4.87
2018-09-13T12:05:03.756Z,6.10
2018-09-13T12:06:10.151Z,5.07
2018-09-13T12:07:16.400Z,6.57
2018-09-13T12:08:22.409Z,5.97
2018-09-13T12:09:28.756Z,6.72
2018-09-13T12:10:35.721Z,5.57
2018-09-13T12:11:45.110Z,4.68
2018-09-13T12:12:56.419Z,5.57
2018-09-13T12:14:04.833Z,5.22
2018-09-13T12:15:11.060Z,5.55
2018-09-13T12:16:17.197Z,6.60
2018-09-13T12:17:24.072Z,5.65
2018-09-13T12:18:30.743Z,6.87
2018-09-13T12:19:43.400Z,7.28
2018-09-13T12:20:55.173Z,5.55
2018-09-13T12:22:01.535Z,8.32
2018-09-13T12:23:07.789Z,6.47
2018-09-13T12:24:14.762Z,8.23
2018-09-13T12:25:21.755Z,5.68
2018-09-13T12:27:44.775Z,6.78
2018-09-13T12:28:51.057Z,6.00
2018-09-13T12:29:58.264Z,5.87
2018-09-13T12:31:04.561Z,6.15
2018-09-13T12:32:11.049Z,5.65
2018-09-13T12:33:16.970Z,6.32
2018-09-13T12:34:23.317Z,6.78
2018-09-13T12:35:31.435Z,7.03
2018-09-13T12:37:48.983Z,6.32
2018-09-13T12:38:55.238Z,7.80
2018-09-13T12:40:01.511Z,6.65
2018-09-13T12:41:08.251Z,7.62
2018-09-13T12:42:17.130Z,8.68
2018-09-13T12:43:24.855Z,7.97
2018-09-13T12:44:32.017Z,6.60
2018-09-13T12:45:37.764Z,7.37
2018-09-13T12:46:44.945Z,7.20
2018-09-13T12:47:52.223Z,7.05
2018-09-13T12:49:03.650Z,8.20
2018-09-13T12:50:08.963Z,8.60
2018-09-13T12:51:15.051Z,6.72
2018-09-13T12:52:21.944Z,8.27
2018-09-13T12:53:28.229Z,7.72
2018-09-13T12:54:33.905Z,8.85
2018-09-13T12:55:41.624Z,11.10
2018-09-13T12:56:47.997Z,7.57
2018-09-13T12:57:54.259Z,9.43
2018-09-13T12:59:00.870Z,9.48
2018-09-13T13:00:06.235Z,13.55
2018-09-13T13:01:15.393Z,8.32
2018-09-13T13:02:22.584Z,8.20
2018-09-13T13:03:28.882Z,7.28
2018-09-13T13:04:35.851Z,7.97
2018-09-13T13:05:43.085Z,8.70
2018-09-13T13:06:49.419Z,11.57
2018-09-13T13:07:55.656Z,7.85
2018-09-13T13:09:01.904Z,7.43
2018-09-13T13:10:07.240Z,9.25
2018-09-13T13:11:12.533Z,8.30
2018-09-13T13:12:19.357Z,8.43
2018-09-13T13:13:24.887Z,7.12
2018-09-13T13:14:30.549Z,8.85
2018-09-13T13:15:36.125Z,7.90
2018-09-13T13:16:42.229Z,8.50
2018-09-13T13:17:49.677Z,7.97
2018-09-13T13:18:59.360Z,9.30
2018-09-13T13:20:04.714Z,9.30
2018-09-13T13:21:10.712Z,9.55
2018-09-13T13:22:17.905Z,8.00
2018-09-13T13:23:24.796Z,7.62
2018-09-13T13:24:32.655Z,8.05
2018-09-13T13:25:38.978Z,10.02
2018-09-13T13:26:45.707Z,6.50
2018-09-13T13:27:51.730Z,9.27
2018-09-13T13:28:59.257Z,7.60
2018-09-13T13:30:04.851Z,9.20
2018-09-13T13:31:10.845Z,10.30
2018-09-13T13:32:16.884Z,8.75
2018-09-13T13:33:26.698Z,8.48
2018-09-13T13:34:36.967Z,8.55
2018-09-13T13:35:43.282Z,8.55
2018-09-13T13:36:50.204Z,12.02
2018-09-13T13:37:56.142Z,7.65
2018-09-13T13:39:05.467Z,8.40
2018-09-13T13:40:11.547Z,8.80
2018-09-13T13:41:23.410Z,9.75
2018-09-13T13:42:29.651Z,10.60
2018-09-13T13:43:35.923Z,9.00
2018-09-13T13:44:42.158Z,7.50
2018-09-13T13:45:48.383Z,7.43
2018-09-13T13:46:54.267Z,10.05
2018-09-13T13:48:00.504Z,14.32
2018-09-13T13:49:06.503Z,7.72
2018-09-13T13:50:12.512Z,7.43
2018-09-13T13:51:18.761Z,12.68
2018-09-13T13:52:24.988Z,8.95
2018-09-13T13:53:31.252Z,17.17
2018-09-13T13:54:37.493Z,9.25
2018-09-13T13:55:43.745Z,10.10
2018-09-13T13:56:49.646Z,10.00
2018-09-13T13:57:55.881Z,9.75
2018-09-13T13:59:03.792Z,10.75
2018-09-13T14:00:09.718Z,7.68
2018-09-13T14:01:16.592Z,9.88
2018-09-13T14:02:22.843Z,11.38
2018-09-13T14:03:29.137Z,11.45
2018-09-13T14:04:35.406Z,11.95
2018-09-13T14:05:41.642Z,11.50
2018-09-13T14:06:47.910Z,8.05
2018-09-13T14:07:54.148Z,9.23
2018-09-13T14:09:00.423Z,10.30
2018-09-13T14:10:06.411Z,12.93
2018-09-13T14:11:12.914Z,12.20
2018-09-13T14:12:20.176Z,11.02
2018-09-13T14:13:26.460Z,9.93
2018-09-13T14:14:32.730Z,9.15
2018-09-13T14:15:38.986Z,12.43
2018-09-13T14:16:45.239Z,11.00
2018-09-13T14:17:51.517Z,10.88
2018-09-13T14:18:57.791Z,11.07
2018-09-13T14:20:04.076Z,11.95
2018-09-13T14:21:10.362Z,12.93
2018-09-13T14:22:16.417Z,10.68
2018-09-13T14:23:22.656Z,9.60
2018-09-13T14:24:28.921Z,11.55
2018-09-13T14:25:34.974Z,11.20
2018-09-13T14:26:41.239Z,13.88
2018-09-13T14:27:47.582Z,10.43
2018-09-13T14:28:53.817Z,14.50
2018-09-13T14:30:00.114Z,11.85
2018-09-13T14:31:06.740Z,9.05
2018-09-13T14:32:12.980Z,13.52
2018-09-13T14:33:19.245Z,11.52
2018-09-13T14:34:26.935Z,14.18
2018-09-13T14:35:33.252Z,15.52
2018-09-13T14:36:40.034Z,9.88
2018-09-13T14:37:46.305Z,13.45
2018-09-13T14:38:52.606Z,15.07
2018-09-13T14:39:58.938Z,10.95
2018-09-13T14:41:05.338Z,12.77
2018-09-13T14:42:11.626Z,11.52
2018-09-13T14:43:17.945Z,10.85
2018-09-13T14:44:24.233Z,11.12
2018-09-13T14:45:30.817Z,12.90
2018-09-13T14:46:37.063Z,11.80
2018-09-13T14:47:43.422Z,11.93
2018-09-13T14:48:49.841Z,11.40
2018-09-13T14:49:56.114Z,11.02
2018-09-13T14:51:02.125Z,10.80
2018-09-13T14:52:08.480Z,14.20
2018-09-13T14:53:14.763Z,10.25
2018-09-13T14:54:21.055Z,10.75
2018-09-13T14:55:27.322Z,11.65
2018-09-13T14:56:33.597Z,10.60
2018-09-13T14:57:39.486Z,12.02
2018-09-13T14:58:45.737Z,10.60